createdAt,value
2019-02-06T00:00:42.602Z,59.53
2019-02-06T00:03:13.025Z,59.73
2019-02-06T00:05:41.665Z,59.00
2019-02-06T00:08:10.275Z,58.38
2019-02-06T00:10:39.202Z,64.92
2019-02-06T00:13:08.204Z,64.58
2019-02-06T00:15:37.107Z,58.98
2019-02-06T00:18:06.025Z,62.67
2019-02-06T00:20:34.766Z,56.75
2019-02-06T00:23:03.441Z,65.65
2019-02-06T00:25:32.213Z,61.25
2019-02-06T00:28:00.930Z,65.78
2019-02-06T00:30:29.538Z,62.00
2019-02-06T00:32:58.171Z,58.17
2019-02-06T00:35:27.309Z,60.33
2019-02-06T00:37:56.234Z,56.68
2019-02-06T00:40:25.075Z,60.38
2019-02-06T00:42:53.764Z,60.88
2019-02-06T00:45:22.328Z,55.50
2019-02-06T00:47:50.835Z,60.52
2019-02-06T00:50:19.736Z,64.53
2019-02-06T00:52:48.566Z,60.12
2019-02-06T00:55:17.422Z,58.85
2019-02-06T00:57:46.432Z,54.50
2019-02-06T01:00:22.204Z,55.52
2019-02-06T01:02:51.716Z,58.83
2019-02-06T01:05:20.970Z,61.90
2019-02-06T01:07:49.996Z,57.62
2019-02-06T01:10:19.938Z,55.70
2019-02-06T01:12:48.584Z,59.05
2019-02-06T01:15:17.395Z,64.27
2019-02-06T01:17:46.294Z,61.68
2019-02-06T01:20:16.137Z,58.05
2019-02-06T01:22:45.057Z,60.70
2019-02-06T01:25:18.033Z,60.85
2019-02-06T01:27:47.915Z,61.15
2019-02-06T01:30:18.581Z,61.23
2019-02-06T01:32:47.446Z,55.78
2019-02-06T01:35:16.400Z,61.20
2019-02-06T01:37:45.228Z,58.70
2019-02-06T01:40:15.357Z,57.73
2019-02-06T01:42:44.297Z,63.13
2019-02-06T01:45:14.666Z,61.63
2019-02-06T01:47:43.593Z,60.08
2019-02-06T01:50:13.395Z,55.85
2019-02-06T01:52:42.378Z,58.02
2019-02-06T01:55:11.613Z,58.35
2019-02-06T01:57:40.575Z,57.90
2019-02-06T02:00:13.429Z,58.87
2019-02-06T02:02:42.033Z,59.80
2019-02-06T02:05:10.865Z,57.20
2019-02-06T02:07:39.655Z,62.85
2019-02-06T02:10:10.256Z,56.20
2019-02-06T02:12:39.177Z,60.35
2019-02-06T02:15:09.295Z,53.48
2019-02-06T02:17:39.478Z,63.83
2019-02-06T02:20:09.836Z,57.65
2019-02-06T02:22:38.505Z,58.58
2019-02-06T02:25:07.327Z,59.75
2019-02-06T02:27:37.427Z,61.28
2019-02-06T02:30:09.852Z,56.40
2019-02-06T02:32:38.690Z,56.90
2019-02-06T02:35:09.325Z,57.45
2019-02-06T02:37:38.002Z,64.42
2019-02-06T02:40:08.031Z,59.63
2019-02-06T02:42:37.380Z,61.13
2019-02-06T02:45:07.983Z,58.15
2019-02-06T02:47:36.606Z,63.58
2019-02-06T02:50:07.320Z,65.35
2019-02-06T02:52:35.838Z,53.25
2019-02-06T02:55:05.886Z,55.60
2019-02-06T02:57:34.712Z,60.05
2019-02-06T03:00:05.253Z,61.00
2019-02-06T03:02:35.526Z,60.43
2019-02-06T03:05:05.226Z,60.03
2019-02-06T03:07:33.889Z,55.80
2019-02-06T03:10:02.622Z,56.85
2019-02-06T03:12:31.396Z,55.85
2019-02-06T03:14:59.868Z,61.18
2019-02-06T03:17:28.793Z,59.93
2019-02-06T03:19:57.704Z,54.30
2019-02-06T03:22:26.278Z,52.80
2019-02-06T03:24:55.207Z,60.38
2019-02-06T03:27:24.010Z,62.15
2019-02-06T03:29:52.548Z,59.13
2019-02-06T03:32:21.422Z,64.20
2019-02-06T03:34:50.378Z,51.92
2019-02-06T03:37:19.412Z,66.17
2019-02-06T03:39:48.345Z,60.25
2019-02-06T03:42:17.252Z,57.80
2019-02-06T03:44:46.258Z,60.17
2019-02-06T03:47:14.833Z,56.35
2019-02-06T03:49:43.686Z,65.75
2019-02-06T03:52:12.760Z,66.85
2019-02-06T03:54:41.514Z,60.60
2019-02-06T03:57:10.165Z,60.48
2019-02-06T03:59:38.766Z,59.95
2019-02-06T04:02:07.525Z,58.78
2019-02-06T04:04:36.425Z,62.53
2019-02-06T04:07:05.109Z,63.05
2019-02-06T04:09:33.811Z,61.33
2019-02-06T04:12:02.524Z,62.98
2019-02-06T04:14:31.334Z,60.98
2019-02-06T04:16:59.927Z,69.20
2019-02-06T04:19:28.511Z,61.08
2019-02-06T04:21:57.475Z,56.60
2019-02-06T04:24:26.744Z,57.48
2019-02-06T04:26:55.355Z,61.25
2019-02-06T04:29:24.357Z,59.20
2019-02-06T04:31:53.028Z,62.05
2019-02-06T04:34:22.973Z,65.20
2019-02-06T04:36:52.004Z,59.53
2019-02-06T04:39:21.164Z,59.85
2019-02-06T04:41:49.815Z,60.03
2019-02-06T04:44:18.558Z,60.80
2019-02-06T04:46:47.498Z,58.05
2019-02-06T04:49:16.317Z,60.73
2019-02-06T04:51:45.199Z,56.30
2019-02-06T04:54:14.477Z,58.23
2019-02-06T04:56:43.305Z,54.35
2019-02-06T04:59:12.095Z,59.90
2019-02-06T05:01:40.768Z,59.90
2019-02-06T05:04:09.306Z,54.03
2019-02-06T05:06:37.863Z,66.22
2019-02-06T05:09:06.904Z,61.37
2019-02-06T05:11:35.946Z,57.62
2019-02-06T05:14:04.898Z,60.17
2019-02-06T05:16:33.671Z,57.45
2019-02-06T05:19:02.312Z,57.23
2019-02-06T05:21:30.956Z,60.70
2019-02-06T05:24:00.996Z,65.47
2019-02-06T05:26:29.747Z,59.30
2019-02-06T05:28:59.548Z,62.83
2019-02-06T05:31:28.275Z,58.10
2019-02-06T05:33:56.763Z,61.23
2019-02-06T05:36:25.852Z,62.10
2019-02-06T05:38:54.880Z,60.20
2019-02-06T05:41:23.879Z,60.35
2019-02-06T05:43:53.171Z,61.42
2019-02-06T05:46:21.795Z,62.85
2019-02-06T05:48:50.275Z,72.53
2019-02-06T05:51:19.105Z,65.17
2019-02-06T05:53:47.697Z,63.30
2019-02-06T05:56:16.561Z,65.87
2019-02-06T05:58:45.234Z,64.25
2019-02-06T06:01:14.261Z,71.07
2019-02-06T06:03:43.161Z,61.88
2019-02-06T06:06:12.252Z,70.03
2019-02-06T06:08:41.124Z,67.92
2019-02-06T06:11:09.855Z,65.10
2019-02-06T06:13:38.390Z,67.58
2019-02-06T06:16:07.015Z,67.45
2019-02-06T06:18:36.064Z,65.78
2019-02-06T06:21:04.925Z,60.83
2019-02-06T06:23:33.859Z,61.83
2019-02-06T06:26:02.496Z,57.10
2019-02-06T06:28:31.575Z,59.27
2019-02-06T06:31:01.285Z,66.95
2019-02-06T06:33:30.006Z,67.10
2019-02-06T06:35:58.950Z,60.52
2019-02-06T06:38:27.510Z,68.95
2019-02-06T06:41:01.785Z,65.28
2019-02-06T06:43:30.254Z,66.72
2019-02-06T06:45:59.094Z,74.32
2019-02-06T06:48:28.360Z,66.65
2019-02-06T06:50:58.642Z,75.05
2019-02-06T06:53:27.292Z,64.53
2019-02-06T06:55:56.182Z,64.90
2019-02-06T06:58:24.990Z,67.58
2019-02-06T07:00:53.842Z,72.22
2019-02-06T07:03:22.569Z,68.97
2019-02-06T07:05:51.281Z,69.77
2019-02-06T07:08:19.994Z,70.05
2019-02-06T07:10:48.945Z,69.77
2019-02-06T07:13:17.485Z,67.60
2019-02-06T07:15:46.464Z,64.03
2019-02-06T07:18:15.212Z,69.30
2019-02-06T07:20:53.645Z,74.75
2019-02-06T07:23:22.543Z,76.30
2019-02-06T07:25:51.217Z,70.67
2019-02-06T07:28:20.134Z,71.30
2019-02-06T07:30:48.810Z,67.80
2019-02-06T07:33:17.559Z,65.20
2019-02-06T07:35:46.512Z,64.70
2019-02-06T07:38:23.998Z,65.72
2019-02-06T07:40:45.688Z,65.42
2019-02-06T07:43:14.495Z,72.82
2019-02-06T07:45:43.321Z,68.52
2019-02-06T07:48:12.153Z,66.37
2019-02-06T07:50:41.104Z,74.30
2019-02-06T07:53:09.891Z,68.17
2019-02-06T07:55:44.743Z,65.85
2019-02-06T07:58:13.431Z,65.20
2019-02-06T08:00:42.221Z,62.27
2019-02-06T08:03:10.946Z,62.93
2019-02-06T08:05:39.892Z,58.15
2019-02-06T08:08:09.865Z,59.42
2019-02-06T08:10:38.344Z,58.30
2019-02-06T08:13:07.411Z,51.73
2019-02-06T08:15:36.129Z,51.25
2019-02-06T08:18:05.592Z,58.70
2019-02-06T08:20:34.772Z,58.60
2019-02-06T08:23:03.361Z,51.90
2019-02-06T08:25:32.008Z,55.33
2019-02-06T08:28:00.606Z,63.73
2019-02-06T08:30:30.523Z,58.30
2019-02-06T08:32:59.333Z,60.88
2019-02-06T08:35:27.863Z,68.30
2019-02-06T08:37:56.951Z,58.13
2019-02-06T08:40:26.822Z,54.18
2019-02-06T08:42:55.818Z,52.95
2019-02-06T08:45:25.484Z,51.28
2019-02-06T08:47:54.498Z,51.37
2019-02-06T08:50:23.701Z,58.87
2019-02-06T08:52:52.206Z,52.40
2019-02-06T08:55:25.502Z,49.77
2019-02-06T08:57:55.020Z,47.03
2019-02-06T09:00:24.683Z,51.58
2019-02-06T09:02:53.462Z,51.15
2019-02-06T09:05:22.064Z,45.90
2019-02-06T09:07:50.906Z,45.75
2019-02-06T09:10:21.004Z,47.00
2019-02-06T09:12:49.884Z,44.33
2019-02-06T09:15:19.805Z,42.33
2019-02-06T09:17:48.806Z,42.33
2019-02-06T09:20:19.214Z,41.42
2019-02-06T09:22:48.078Z,39.03
2019-02-06T09:25:18.273Z,41.25
2019-02-06T09:27:46.932Z,37.73
2019-02-06T09:30:17.073Z,37.67
2019-02-06T09:32:45.778Z,35.60
2019-02-06T09:35:14.715Z,37.65
2019-02-06T09:37:44.006Z,35.33
2019-02-06T09:40:14.101Z,39.75
2019-02-06T09:42:42.671Z,37.93
2019-02-06T09:45:12.385Z,35.08
2019-02-06T09:47:41.311Z,35.80
2019-02-06T09:50:11.465Z,36.10
2019-02-06T09:52:40.522Z,34.45
2019-02-06T09:55:09.356Z,34.85
2019-02-06T09:57:38.174Z,33.23
2019-02-06T10:00:08.541Z,34.60
2019-02-06T10:02:38.327Z,32.30
2019-02-06T10:05:08.508Z,32.78
2019-02-06T10:07:37.824Z,32.08
2019-02-06T10:10:11.126Z,39.40
2019-02-06T10:12:39.852Z,30.48
2019-02-06T10:15:10.334Z,30.70
2019-02-06T10:17:39.045Z,33.92
2019-02-06T10:20:09.390Z,28.90
2019-02-06T10:22:38.453Z,29.23
2019-02-06T10:25:07.509Z,32.83
2019-02-06T10:27:36.555Z,30.85
2019-02-06T10:30:09.408Z,30.37
2019-02-06T10:32:38.443Z,30.20
2019-02-06T10:35:07.985Z,30.00
2019-02-06T10:37:36.935Z,27.75
2019-02-06T10:40:07.312Z,28.98
2019-02-06T10:42:36.157Z,27.37
2019-02-06T10:45:06.614Z,28.30
2019-02-06T10:47:35.456Z,27.35
2019-02-06T10:50:05.382Z,28.70
2019-02-06T10:52:34.671Z,28.98
2019-02-06T10:55:03.533Z,25.85
2019-02-06T10:57:32.284Z,24.77
2019-02-06T11:00:01.082Z,22.77
2019-02-06T11:02:34.526Z,22.85
2019-02-06T11:05:02.443Z,26.12
2019-02-06T11:07:31.676Z,26.10
2019-02-06T11:10:01.581Z,28.90
2019-02-06T11:12:31.852Z,24.15
2019-02-06T11:15:00.643Z,24.98
2019-02-06T11:17:29.398Z,25.50
2019-02-06T11:19:58.026Z,23.65
2019-02-06T11:22:26.994Z,25.20
2019-02-06T11:24:55.830Z,24.35
2019-02-06T11:27:24.663Z,24.67
2019-02-06T11:29:53.692Z,24.40
2019-02-06T11:32:22.516Z,23.57
2019-02-06T11:34:51.252Z,23.40
2019-02-06T11:37:20.280Z,22.10
2019-02-06T11:39:57.619Z,19.50
2019-02-06T11:42:19.864Z,23.05
2019-02-06T11:44:48.352Z,22.20
2019-02-06T11:47:17.055Z,23.83
2019-02-06T11:49:46.654Z,22.45
2019-02-06T11:52:15.581Z,21.75
2019-02-06T11:54:44.438Z,26.70
2019-02-06T11:57:13.378Z,26.25
2019-02-06T11:59:42.014Z,23.35
2019-02-06T12:02:10.734Z,21.35
2019-02-06T12:04:39.778Z,21.85
2019-02-06T12:07:08.717Z,19.67
2019-02-06T12:09:37.973Z,19.75
2019-02-06T12:12:07.076Z,25.20
2019-02-06T12:14:35.941Z,19.95
2019-02-06T12:17:07.851Z,24.15
2019-02-06T12:19:36.935Z,25.45
2019-02-06T12:22:06.014Z,21.65
2019-02-06T12:24:35.141Z,22.62
2019-02-06T12:27:03.792Z,23.40
2019-02-06T12:29:32.529Z,23.40
2019-02-06T12:32:01.311Z,22.15
2019-02-06T12:34:30.103Z,19.30
2019-02-06T12:36:58.984Z,21.45
2019-02-06T12:39:27.827Z,24.23
2019-02-06T12:41:57.005Z,22.07
2019-02-06T12:44:26.349Z,20.50
2019-02-06T12:46:55.439Z,22.75
2019-02-06T12:49:24.062Z,21.55
2019-02-06T12:51:53.006Z,21.25
2019-02-06T12:54:21.613Z,22.00
2019-02-06T12:56:51.846Z,19.98
2019-02-06T12:59:20.455Z,21.37
2019-02-06T13:01:49.262Z,20.82
2019-02-06T13:04:18.241Z,19.82
2019-02-06T13:06:46.830Z,21.60
2019-02-06T13:09:15.469Z,25.50
2019-02-06T13:11:44.205Z,25.15
2019-02-06T13:14:13.034Z,27.13
2019-02-06T13:16:42.224Z,25.92
2019-02-06T13:19:10.929Z,24.80
2019-02-06T13:21:39.588Z,25.20
2019-02-06T13:24:08.454Z,23.85
2019-02-06T13:26:37.325Z,24.15
2019-02-06T13:29:06.260Z,30.43
2019-02-06T13:31:35.401Z,29.18
2019-02-06T13:34:03.985Z,27.35
2019-02-06T13:36:32.749Z,28.45
2019-02-06T13:39:01.623Z,30.32
2019-02-06T13:41:32.036Z,28.60
2019-02-06T13:44:00.926Z,26.50
2019-02-06T13:46:29.490Z,24.63
2019-02-06T13:49:09.271Z,21.45
2019-02-06T13:51:38.017Z,25.20
2019-02-06T13:54:06.923Z,27.85
2019-02-06T13:56:35.945Z,22.20
2019-02-06T13:59:07.298Z,22.73
2019-02-06T14:01:35.198Z,23.67
2019-02-06T14:04:04.265Z,19.70
2019-02-06T14:06:34.625Z,20.35
2019-02-06T14:09:03.245Z,22.45
2019-02-06T14:11:33.382Z,21.12
2019-02-06T14:14:02.285Z,23.95
2019-02-06T14:16:31.592Z,22.00
2019-02-06T14:19:00.632Z,20.65
2019-02-06T14:21:29.788Z,24.43
2019-02-06T14:23:59.943Z,62.90
2019-02-06T14:26:30.343Z,25.95
2019-02-06T14:29:15.774Z,24.25
2019-02-06T14:32:02.421Z,23.40
2019-02-06T14:34:44.766Z,23.80
2019-02-06T14:37:15.974Z,39.67
2019-02-06T14:39:58.308Z,40.92
2019-02-06T14:42:31.483Z,34.18
2019-02-06T14:45:18.703Z,38.42
2019-02-06T14:47:49.039Z,28.98
2019-02-06T14:50:22.301Z,29.30
2019-02-06T14:53:01.533Z,31.45
2019-02-06T14:55:33.494Z,28.32
2019-02-06T14:58:03.716Z,40.43
2019-02-06T15:00:37.166Z,41.35
2019-02-06T15:03:25.960Z,40.00
2019-02-06T15:05:56.334Z,32.53
2019-02-06T15:08:26.854Z,32.75
2019-02-06T15:11:00.251Z,33.60
2019-02-06T15:13:45.907Z,37.63
2019-02-06T15:16:32.669Z,33.13
2019-02-06T15:19:05.551Z,37.75
2019-02-06T15:21:35.642Z,45.03
2019-02-06T15:24:21.416Z,62.20
2019-02-06T15:26:54.564Z,46.68
2019-02-06T15:29:24.782Z,36.90
2019-02-06T15:32:01.342Z,39.53
2019-02-06T15:34:48.520Z,45.75
2019-02-06T15:37:21.595Z,39.27
2019-02-06T15:39:54.597Z,36.65
2019-02-06T15:42:33.852Z,34.03
2019-02-06T15:45:14.144Z,32.78
2019-02-06T15:47:52.658Z,35.35
2019-02-06T15:50:34.967Z,39.13
2019-02-06T15:53:05.387Z,52.55
2019-02-06T15:55:48.677Z,45.67
2019-02-06T15:58:35.452Z,56.58
2019-02-06T16:01:14.835Z,55.10
2019-02-06T16:04:04.444Z,62.93
2019-02-06T16:06:51.538Z,53.23
2019-02-06T16:09:27.223Z,241.00
2019-02-06T16:11:57.340Z,338.70
2019-02-06T16:14:30.464Z,112.30
2019-02-06T16:17:03.373Z,58.55
2019-02-06T16:19:52.290Z,190.77
2019-02-06T16:22:35.168Z,133.47
2019-02-06T16:25:22.077Z,72.70
2019-02-06T16:28:04.442Z,71.33
2019-02-06T16:30:47.937Z,71.90
2019-02-06T16:33:24.656Z,55.52
2019-02-06T16:35:54.734Z,50.55
2019-02-06T16:38:30.953Z,45.60
2019-02-06T16:41:18.597Z,54.18
2019-02-06T16:43:48.936Z,57.45
2019-02-06T16:46:35.798Z,56.60
2019-02-06T16:49:06.436Z,66.90
2019-02-06T16:51:36.632Z,57.80
2019-02-06T16:54:13.187Z,62.23
2019-02-06T16:56:52.193Z,70.30
2019-02-06T16:59:22.806Z,102.25
2019-02-06T17:01:58.745Z,90.57
2019-02-06T17:04:28.854Z,78.30
2019-02-06T17:07:01.789Z,79.22
2019-02-06T17:09:32.206Z,88.55
2019-02-06T17:12:11.299Z,105.20
2019-02-06T17:14:59.833Z,142.15
2019-02-06T17:17:29.962Z,63.75
2019-02-06T17:20:09.621Z,79.97
2019-02-06T17:22:42.621Z,115.92
2019-02-06T17:25:18.645Z,64.87
2019-02-06T17:27:52.466Z,66.70
2019-02-06T17:30:28.264Z,71.97
2019-02-06T17:33:03.987Z,71.85
2019-02-06T17:35:43.339Z,679.55
2019-02-06T17:38:13.532Z,102.55
2019-02-06T17:40:49.392Z,572.42
2019-02-06T17:43:22.465Z,1763.40
2019-02-06T17:46:01.710Z,898.93
2019-02-06T17:48:32.252Z,786.12
2019-02-06T17:51:11.782Z,483.72
2019-02-06T17:53:41.931Z,168.37
2019-02-06T17:56:11.128Z,123.92
2019-02-06T17:58:39.606Z,88.52
2019-02-06T18:01:09.868Z,100.70
2019-02-06T18:03:40.062Z,126.87
2019-02-06T18:06:08.819Z,136.28
2019-02-06T18:08:38.199Z,186.73
2019-02-06T18:11:07.750Z,125.65
2019-02-06T18:13:36.538Z,67.90
2019-02-06T18:16:05.584Z,91.25
2019-02-06T18:18:35.731Z,62.30
2019-02-06T18:21:08.369Z,61.90
2019-02-06T18:23:37.032Z,81.87
2019-02-06T18:26:06.905Z,359.37
2019-02-06T18:28:37.442Z,1341.88
2019-02-06T18:31:06.416Z,293.88
2019-02-06T18:33:35.526Z,198.23
2019-02-06T18:36:06.455Z,79.35
2019-02-06T18:38:35.067Z,69.72
2019-02-06T18:41:03.890Z,72.53
2019-02-06T18:43:32.401Z,69.70
2019-02-06T18:46:03.192Z,67.87
2019-02-06T18:48:33.435Z,69.20
2019-02-06T18:51:06.475Z,72.53
2019-02-06T18:53:36.733Z,71.80
2019-02-06T18:56:05.467Z,69.40
2019-02-06T18:58:36.985Z,75.80
2019-02-06T19:01:07.238Z,70.52
2019-02-06T19:03:37.463Z,82.57
2019-02-06T19:06:06.375Z,333.60
2019-02-06T19:08:35.364Z,100.78
2019-02-06T19:11:04.703Z,163.92
2019-02-06T19:16:13.804Z,75.55
2019-02-06T19:18:42.328Z,65.95
2019-02-06T19:21:13.781Z,68.85
2019-02-06T19:23:46.733Z,76.70
2019-02-06T19:26:15.504Z,66.67
2019-02-06T19:28:44.324Z,70.40
2019-02-06T19:31:13.277Z,71.42
2019-02-06T19:33:43.676Z,70.50
2019-02-06T19:36:14.132Z,71.37
2019-02-06T19:38:43.024Z,71.77
2019-02-06T19:41:12.000Z,78.37
2019-02-06T19:43:40.659Z,70.92
2019-02-06T19:46:12.141Z,71.87
2019-02-06T19:48:42.514Z,70.85
2019-02-06T19:51:11.281Z,74.20
2019-02-06T19:53:40.766Z,75.95
2019-02-06T19:56:09.881Z,74.85
2019-02-06T19:58:41.146Z,73.67
2019-02-06T20:01:13.508Z,71.55
2019-02-06T20:03:49.104Z,76.33
2019-02-06T20:06:30.002Z,76.55
2019-02-06T20:08:59.047Z,77.45
2019-02-06T20:11:27.823Z,73.62
2019-02-06T20:13:57.648Z,73.55
2019-02-06T20:16:30.352Z,66.25
2019-02-06T20:18:59.086Z,74.03
2019-02-06T20:21:28.474Z,75.12
2019-02-06T20:23:57.434Z,83.85
2019-02-06T20:26:31.347Z,84.60
2019-02-06T20:29:02.256Z,95.20
2019-02-06T20:31:31.304Z,86.53
2019-02-06T20:34:03.987Z,86.82
2019-02-06T20:36:38.542Z,81.20
2019-02-06T20:39:07.962Z,85.55
2019-02-06T20:41:38.113Z,84.95
2019-02-06T20:44:08.296Z,79.00
2019-02-06T20:46:37.054Z,78.57
2019-02-06T20:49:05.870Z,76.53
2019-02-06T20:51:37.351Z,101.42
2019-02-06T20:54:10.365Z,86.20
2019-02-06T20:56:39.015Z,85.10
2019-02-06T20:59:10.062Z,84.97
2019-02-06T21:01:38.708Z,79.55
2019-02-06T21:04:12.915Z,81.60
2019-02-06T21:06:41.612Z,79.60
2019-02-06T21:09:11.567Z,85.30
2019-02-06T21:11:40.222Z,86.00
2019-02-06T21:14:08.825Z,84.17
2019-02-06T21:16:37.432Z,81.78
2019-02-06T21:19:06.142Z,78.85
2019-02-06T21:21:34.978Z,82.70
2019-02-06T21:24:03.819Z,83.12
2019-02-06T21:26:37.915Z,81.08
2019-02-06T21:29:08.386Z,86.35
2019-02-06T21:31:37.118Z,83.50
2019-02-06T21:34:09.427Z,83.82
2019-02-06T21:36:38.264Z,88.55
2019-02-06T21:39:13.725Z,85.57
2019-02-06T21:41:42.478Z,85.45
2019-02-06T21:44:11.167Z,90.53
2019-02-06T21:46:39.651Z,89.07
2019-02-06T21:49:10.906Z,91.30
2019-02-06T21:51:39.691Z,98.22
2019-02-06T21:54:14.485Z,93.60
2019-02-06T21:56:43.127Z,89.75
2019-02-06T21:59:11.799Z,97.88
2019-02-06T22:01:40.427Z,101.18
2019-02-06T22:04:22.027Z,93.00
2019-02-06T22:06:50.765Z,98.10
2019-02-06T22:09:20.999Z,98.90
2019-02-06T22:11:49.650Z,94.60
2019-02-06T22:14:18.328Z,92.82
2019-02-06T22:16:49.889Z,97.88
2019-02-06T22:19:18.824Z,92.27
2019-02-06T22:21:47.513Z,98.82
2019-02-06T22:24:16.067Z,93.25
2019-02-06T22:26:45.058Z,97.20
2019-02-06T22:29:13.835Z,92.40
2019-02-06T22:31:46.996Z,92.12
2019-02-06T22:34:16.468Z,98.70
2019-02-06T22:36:45.181Z,98.03
2019-02-06T22:39:13.945Z,96.12
2019-02-06T22:41:43.075Z,98.50
2019-02-06T22:44:11.853Z,99.75
2019-02-06T22:46:40.494Z,104.92
2019-02-06T22:49:09.862Z,100.00
2019-02-06T22:51:38.507Z,101.50
2019-02-06T22:54:08.314Z,94.52
2019-02-06T22:56:36.876Z,101.20
2019-02-06T22:59:05.706Z,98.92
2019-02-06T23:01:35.875Z,95.70
2019-02-06T23:04:05.182Z,96.70
2019-02-06T23:06:33.878Z,95.90
2019-02-06T23:09:07.883Z,98.17
2019-02-06T23:11:37.061Z,95.75
2019-02-06T23:14:16.900Z,97.47
2019-02-06T23:16:37.535Z,98.95
2019-02-06T23:19:06.154Z,95.15
2019-02-06T23:21:36.237Z,98.05
2019-02-06T23:24:04.843Z,102.75
2019-02-06T23:26:33.713Z,96.40
2019-02-06T23:29:02.386Z,103.22
2019-02-06T23:31:31.209Z,103.65
2019-02-06T23:34:01.595Z,102.20
2019-02-06T23:36:30.191Z,102.95
2019-02-06T23:38:58.651Z,96.47
2019-02-06T23:41:27.556Z,98.60
2019-02-06T23:43:56.084Z,101.25
2019-02-06T23:46:24.912Z,94.35
2019-02-06T23:48:53.475Z,96.72
2019-02-06T23:51:22.255Z,97.92
2019-02-06T23:53:54.700Z,95.87
2019-02-06T23:56:23.145Z,98.17
2019-02-06T23:58:51.834Z,102.58
